Time;durP1;ratioP1;P1;durP2;ratioP2;P2;SDS_P1;SDS_P2;PMS_P1;PMS_P2;Temp;Humidity;BMP_temperature;BMP_pressure;BME280_temperature;BME280_humidity;BME280_pressure;Samples;Min_cycle;Max_cycle;Signal;HPM_P1;HPM_P2
2023/09/30 00:01:56;;;;;;;9.35;4.88;;;21.10;99.90;;;;;;5032571;28;20034;-40
2023/09/30 00:04:21;;;;;;;10.55;5.03;;;21.10;99.90;;;;;;5032653;28;20071;-37
2023/09/30 00:06:47;;;;;;;9.05;5.10;;;21.10;99.90;;;;;;5032435;28;20364;-33
2023/09/30 00:09:13;;;;;;;9.25;4.68;;;21.10;99.90;;;;;;5032660;28;20030;-37
2023/09/30 00:11:39;;;;;;;9.52;5.10;;;21.10;99.90;;;;;;5014738;28;20025;-33
2023/09/30 00:14:05;;;;;;;9.70;5.03;;;21.10;99.90;;;;;;5033047;28;20040;-33
2023/09/30 00:16:30;;;;;;;8.13;4.75;;;21.10;99.90;;;;;;5032241;28;20396;-34
2023/09/30 00:18:58;;;;;;;8.23;4.50;;;21.10;99.90;;;;;;5032461;28;20032;-34
2023/09/30 00:21:24;;;;;;;8.32;4.88;;;21.10;99.90;;;;;;5032290;28;20029;-33
2023/09/30 00:23:50;;;;;;;8.68;4.47;;;21.10;99.90;;;;;;5032238;28;20029;-36
2023/09/30 00:26:16;;;;;;;8.18;4.55;;;21.10;99.90;;;;;;5031120;28;20026;-34
2023/09/30 00:28:41;;;;;;;9.05;4.70;;;21.10;99.90;;;;;;5032282;28;20104;-36
2023/09/30 00:31:11;;;;;;;8.45;4.70;;;21.10;99.90;;;;;;5032070;28;20096;-34
2023/09/30 00:33:36;;;;;;;10.75;5.15;;;21.10;99.90;;;;;;5032356;28;20105;-34
2023/09/30 00:36:09;;;;;;;8.43;4.72;;;21.10;99.90;;;;;;5031883;28;20473;-36
2023/09/30 00:38:36;;;;;;;9.27;4.90;;;21.10;99.90;;;;;;5032047;28;20036;-33
2023/09/30 00:41:01;;;;;;;10.05;4.85;;;21.10;99.90;;;;;;5031953;28;20095;-35
2023/09/30 00:43:27;;;;;;;9.10;4.88;;;21.10;99.90;;;;;;5032008;28;20490;-37
2023/09/30 00:46:10;;;;;;;7.97;4.20;;;21.10;99.90;;;;;;5031649;28;20449;-35
2023/09/30 00:48:37;;;;;;;8.88;4.90;;;21.00;99.90;;;;;;5031895;28;20570;-35
2023/09/30 00:51:03;;;;;;;7.63;4.13;;;21.10;99.90;;;;;;5031863;28;20048;-35
2023/09/30 00:53:30;;;;;;;7.07;4.00;;;21.10;99.90;;;;;;5014013;28;20111;-38
2023/09/30 00:55:56;;;;;;;8.20;4.50;;;21.00;99.90;;;;;;5031560;28;20087;-36
2023/09/30 00:58:27;;;;;;;7.07;4.22;;;21.10;99.90;;;;;;5031654;28;20025;-33
2023/09/30 01:00:53;;;;;;;8.25;4.30;;;21.10;99.90;;;;;;5031580;28;20030;-36
2023/09/30 01:03:19;;;;;;;8.23;4.53;;;21.10;99.90;;;;;;5031658;28;20483;-35
2023/09/30 01:05:45;;;;;;;10.88;4.78;;;21.10;99.90;;;;;;5031452;28;20497;-36
2023/09/30 01:08:11;;;;;;;8.52;4.53;;;21.00;99.90;;;;;;5031567;28;20025;-39
2023/09/30 01:10:37;;;;;;;7.43;4.15;;;21.00;99.90;;;;;;5031410;28;20048;-36
2023/09/30 01:13:02;;;;;;;7.93;3.88;;;21.00;99.90;;;;;;5031503;28;20029;-40
2023/09/30 01:15:29;;;;;;;9.07;4.25;;;21.00;99.90;;;;;;5031306;28;20021;-36
2023/09/30 01:17:55;;;;;;;7.32;3.90;;;21.00;99.90;;;;;;5031329;28;20072;-35
2023/09/30 01:20:23;;;;;;;7.28;4.07;;;21.00;99.90;;;;;;5031786;28;20111;-40
2023/09/30 01:22:49;;;;;;;7.18;4.28;;;21.00;99.90;;;;;;5031360;28;20026;-35
2023/09/30 01:25:15;;;;;;;6.65;3.85;;;21.10;99.90;;;;;;5031177;28;20028;-35
2023/09/30 01:27:40;;;;;;;6.95;4.07;;;21.00;99.90;;;;;;5031211;28;20475;-34
2023/09/30 01:30:10;;;;;;;7.90;4.10;;;21.00;99.90;;;;;;5031341;28;20043;-33
2023/09/30 01:32:36;;;;;;;7.57;4.05;;;21.00;99.90;;;;;;5031414;28;20033;-33
2023/09/30 01:35:02;;;;;;;7.57;3.90;;;21.00;99.90;;;;;;5031207;28;20162;-40
2023/09/30 01:37:28;;;;;;;7.22;3.70;;;21.00;99.90;;;;;;5031689;28;20482;-36
2023/09/30 01:39:54;;;;;;;6.20;3.50;;;21.00;99.90;;;;;;5035346;28;20026;-39
2023/09/30 01:42:21;;;;;;;7.68;3.97;;;21.00;99.90;;;;;;5035261;28;20089;-36
2023/09/30 01:44:46;;;;;;;7.97;3.75;;;21.00;99.90;;;;;;5035201;28;20028;-34
2023/09/30 01:47:12;;;;;;;7.95;3.83;;;21.00;99.90;;;;;;5034993;28;20033;-37
2023/09/30 01:49:38;;;;;;;6.38;3.90;;;21.00;99.90;;;;;;5035300;28;20048;-35
2023/09/30 01:52:04;;;;;;;4.82;3.03;;;21.00;99.90;;;;;;5035142;28;20121;-36
2023/09/30 01:54:30;;;;;;;6.82;3.60;;;21.00;99.90;;;;;;5035020;28;20037;-39
2023/09/30 01:56:55;;;;;;;6.38;3.72;;;21.00;99.90;;;;;;5034985;28;20029;-38
2023/09/30 01:59:21;;;;;;;6.97;3.70;;;21.00;99.90;;;;;;5035144;28;20060;-33
2023/09/30 02:01:48;;;;;;;7.25;3.67;;;21.00;99.90;;;;;;5034947;28;20029;-34
2023/09/30 02:04:15;;;;;;;7.60;3.45;;;21.00;99.90;;;;;;5034984;28;20021;-37
2023/09/30 02:06:43;;;;;;;6.10;3.47;;;21.00;99.90;;;;;;5034654;28;20026;-37
2023/09/30 02:09:09;;;;;;;7.80;3.95;;;20.90;99.90;;;;;;5034819;28;20063;-40
2023/09/30 02:11:35;;;;;;;6.65;3.58;;;21.00;99.90;;;;;;5016958;28;20030;-35
2023/09/30 02:14:02;;;;;;;6.55;3.70;;;20.90;99.90;;;;;;5034747;28;20503;-36
2023/09/30 02:16:28;;;;;;;4.80;3.00;;;21.00;99.90;;;;;;5034602;28;20041;-39
2023/09/30 02:18:53;;;;;;;7.47;3.95;;;20.90;99.90;;;;;;5035263;28;20084;-37
2023/09/30 02:21:21;;;;;;;6.40;3.58;;;20.90;99.90;;;;;;5034521;28;20021;-33
2023/09/30 02:23:48;;;;;;;6.15;3.30;;;20.90;99.90;;;;;;5034931;28;20041;-34
2023/09/30 02:26:17;;;;;;;7.35;3.63;;;20.90;99.90;;;;;;5034280;28;20108;-37
2023/09/30 02:28:43;;;;;;;6.03;3.50;;;20.90;99.90;;;;;;5034603;28;20056;-37
2023/09/30 02:31:08;;;;;;;5.85;3.00;;;20.90;99.90;;;;;;5034525;28;20025;-39
2023/09/30 02:33:38;;;;;;;6.35;3.40;;;20.90;99.90;;;;;;5034491;28;20025;-35
2023/09/30 02:36:07;;;;;;;6.18;3.30;;;21.00;99.90;;;;;;5034004;28;20045;-38
2023/09/30 02:38:33;;;;;;;5.68;3.28;;;20.90;99.90;;;;;;5034271;28;20087;-35
2023/09/30 02:40:58;;;;;;;6.40;3.20;;;20.90;99.90;;;;;;5034245;28;20406;-33
2023/09/30 02:43:24;;;;;;;5.30;2.80;;;20.90;99.90;;;;;;5034222;28;20021;-39
2023/09/30 02:45:50;;;;;;;5.43;3.30;;;20.90;99.90;;;;;;5034058;28;20507;-37
2023/09/30 02:48:15;;;;;;;7.90;4.13;;;20.90;99.90;;;;;;5033990;28;20483;-36
2023/09/30 02:50:44;;;;;;;6.15;3.45;;;20.90;99.90;;;;;;5032863;28;20026;-35
2023/09/30 02:53:11;;;;;;;6.30;3.25;;;20.90;99.90;;;;;;5034224;28;20120;-38
2023/09/30 02:55:37;;;;;;;6.43;3.10;;;20.90;99.90;;;;;;5033979;28;20022;-37
2023/09/30 02:58:03;;;;;;;8.48;3.70;;;20.90;99.90;;;;;;5033994;28;20383;-43
2023/09/30 03:00:32;;;;;;;5.97;3.40;;;20.90;99.90;;;;;;5033982;28;20029;-36
2023/09/30 03:03:00;;;;;;;6.43;3.33;;;20.90;99.90;;;;;;5033864;28;20029;-37
2023/09/30 03:05:27;;;;;;;7.22;3.05;;;20.90;99.90;;;;;;5033749;28;20075;-37
2023/09/30 03:07:53;;;;;;;6.53;2.75;;;20.90;99.90;;;;;;5015888;28;20094;-34
2023/09/30 03:10:23;;;;;;;6.70;2.88;;;20.90;99.90;;;;;;5033735;28;20403;-40
2023/09/30 03:12:52;;;;;;;10.00;3.38;;;20.90;99.90;;;;;;5033910;28;20022;-34
2023/09/30 03:15:18;;;;;;;6.07;2.83;;;20.90;99.90;;;;;;5033594;28;20562;-34
2023/09/30 03:17:44;;;;;;;6.25;3.42;;;20.80;99.90;;;;;;5033664;28;20029;-37
2023/09/30 03:20:11;;;;;;;5.47;3.10;;;20.90;99.90;;;;;;5033638;28;20096;-33
2023/09/30 03:22:46;;;;;;;6.50;3.20;;;20.80;99.90;;;;;;5033455;28;20108;-35
2023/09/30 03:25:15;;;;;;;6.50;3.00;;;20.90;99.90;;;;;;5033697;28;20498;-37
2023/09/30 03:27:40;;;;;;;7.13;3.22;;;20.80;99.90;;;;;;5038406;28;20021;-36
2023/09/30 03:30:08;;;;;;;5.40;2.90;;;20.80;99.90;;;;;;5035313;28;20323;-33
2023/09/30 03:32:37;;;;;;;6.55;3.45;;;20.90;99.90;;;;;;5033426;28;20040;-36
2023/09/30 03:35:10;;;;;;;6.80;3.17;;;20.80;99.90;;;;;;5033281;28;20025;-40
2023/09/30 03:37:36;;;;;;;6.22;3.15;;;20.90;99.90;;;;;;5033209;28;20019;-37
2023/09/30 03:40:11;;;;;;;5.43;2.80;;;20.90;99.90;;;;;;5033277;28;20021;-34
2023/09/30 03:42:39;;;;;;;7.65;3.17;;;20.90;99.90;;;;;;5033025;28;20401;-35
2023/09/30 03:45:09;;;;;;;5.75;2.97;;;20.80;99.90;;;;;;5033204;28;20029;-38
2023/09/30 03:47:36;;;;;;;7.13;3.05;;;20.80;99.90;;;;;;5033364;28;20394;-35
2023/09/30 03:50:03;;;;;;;4.97;2.83;;;20.80;99.90;;;;;;5033019;28;20075;-38
2023/09/30 03:52:29;;;;;;;4.82;2.60;;;20.80;99.90;;;;;;5033046;28;20036;-35
2023/09/30 03:54:55;;;;;;;5.55;2.88;;;20.80;99.90;;;;;;5032833;28;20021;-33
2023/09/30 03:57:20;;;;;;;5.25;2.78;;;20.80;99.90;;;;;;5032524;28;20021;-37
2023/09/30 03:59:46;;;;;;;5.82;2.72;;;20.80;99.90;;;;;;5032771;28;20088;-33
2023/09/30 04:02:13;;;;;;;7.68;3.10;;;20.80;99.90;;;;;;5032480;28;20025;-33
2023/09/30 04:04:39;;;;;;;6.25;3.08;;;20.80;99.90;;;;;;5032631;28;20021;-36
2023/09/30 04:07:05;;;;;;;4.90;2.90;;;20.80;99.90;;;;;;5032584;28;20548;-35
2023/09/30 04:09:32;;;;;;;5.38;2.65;;;20.80;99.90;;;;;;5015213;28;20382;-36
2023/09/30 04:11:58;;;;;;;5.75;2.70;;;20.80;99.90;;;;;;5032505;28;20029;-35
2023/09/30 04:14:24;;;;;;;6.03;3.13;;;20.80;99.90;;;;;;5032531;28;20032;-37
2023/09/30 04:16:50;;;;;;;5.15;2.70;;;20.80;99.90;;;;;;5032289;28;20053;-35
2023/09/30 04:19:16;;;;;;;5.55;2.83;;;20.80;99.90;;;;;;5032344;28;20487;-34
2023/09/30 04:21:42;;;;;;;5.43;2.92;;;20.80;99.90;;;;;;5032377;28;20096;-37
2023/09/30 04:24:09;;;;;;;4.88;2.90;;;20.80;99.90;;;;;;5032398;28;20021;-36
2023/09/30 04:26:34;;;;;;;6.25;2.80;;;20.80;99.90;;;;;;5031903;28;20040;-37
2023/09/30 04:29:01;;;;;;;5.05;2.83;;;20.80;99.90;;;;;;5032304;28;20104;-36
2023/09/30 04:31:28;;;;;;;5.45;2.58;;;20.80;99.90;;;;;;5032190;28;20491;-34
2023/09/30 04:33:54;;;;;;;4.20;2.75;;;20.80;99.90;;;;;;5032453;28;20025;-41
2023/09/30 04:36:20;;;;;;;5.18;2.65;;;20.80;99.90;;;;;;5031884;28;20562;-36
2023/09/30 04:38:47;;;;;;;4.82;2.63;;;20.80;99.90;;;;;;5032037;28;20075;-36
2023/09/30 04:41:13;;;;;;;5.13;2.53;;;20.80;99.90;;;;;;5031896;28;20025;-36
2023/09/30 04:43:39;;;;;;;4.68;2.63;;;20.80;99.90;;;;;;5032090;28;20013;-33
2023/09/30 04:46:07;;;;;;;5.38;2.67;;;20.80;99.90;;;;;;5031937;28;20092;-37
2023/09/30 04:48:32;;;;;;;5.28;2.60;;;20.80;99.90;;;;;;5031949;28;20036;-38
2023/09/30 04:50:58;;;;;;;5.07;2.50;;;20.80;99.90;;;;;;5031879;28;20017;-33
2023/09/30 04:53:23;;;;;;;4.80;2.55;;;20.80;99.90;;;;;;5031868;28;20021;-33
2023/09/30 04:55:50;;;;;;;4.20;2.33;;;20.80;99.90;;;;;;5032034;28;20486;-35
2023/09/30 04:58:16;;;;;;;4.97;2.63;;;20.80;99.90;;;;;;5031850;28;20018;-36
2023/09/30 05:00:42;;;;;;;4.47;2.60;;;20.80;99.90;;;;;;5031895;28;20029;-38
2023/09/30 05:03:07;;;;;;;4.43;2.60;;;20.80;99.90;;;;;;5031639;28;20382;-38
2023/09/30 05:05:34;;;;;;;4.68;2.58;;;20.80;99.90;;;;;;5031434;28;20025;-36
2023/09/30 05:08:00;;;;;;;4.75;2.53;;;20.70;99.90;;;;;;5031395;28;20560;-35
2023/09/30 05:10:25;;;;;;;5.55;2.70;;;20.80;99.90;;;;;;5031545;28;20056;-37
2023/09/30 05:12:54;;;;;;;4.78;2.40;;;20.80;99.90;;;;;;5030997;28;20491;-38
2023/09/30 05:15:21;;;;;;;5.13;2.50;;;20.70;99.90;;;;;;5031467;28;20151;-36
2023/09/30 05:17:48;;;;;;;4.63;2.42;;;20.80;99.90;;;;;;5031431;28;20068;-40
2023/09/30 05:20:17;;;;;;;5.32;2.60;;;20.80;99.90;;;;;;5031493;28;20083;-36
2023/09/30 05:22:45;;;;;;;4.65;2.35;;;20.80;99.90;;;;;;5031300;28;20022;-36
2023/09/30 05:25:18;;;;;;;4.50;2.30;;;20.70;99.90;;;;;;5031376;28;20020;-33
2023/09/30 05:27:44;;;;;;;4.22;2.30;;;20.80;99.90;;;;;;5031248;28;20103;-36
2023/09/30 05:30:15;;;;;;;5.05;2.60;;;20.80;99.90;;;;;;5031359;28;20036;-37
2023/09/30 05:32:40;;;;;;;6.28;2.20;;;20.70;99.90;;;;;;5014319;28;20030;-35
2023/09/30 05:35:13;;;;;;;4.55;2.45;;;20.70;99.90;;;;;;5031098;28;20037;-36
2023/09/30 05:37:43;;;;;;;5.82;2.50;;;20.70;99.90;;;;;;5031207;28;20632;-35
2023/09/30 05:40:21;;;;;;;5.68;2.40;;;20.70;99.90;;;;;;5031430;28;20021;-37
2023/09/30 05:42:49;;;;;;;5.97;2.65;;;20.70;99.90;;;;;;5031168;28;20029;-34
2023/09/30 05:45:15;;;;;;;5.55;2.40;;;20.70;99.90;;;;;;5031119;28;20028;-37
2023/09/30 05:47:41;;;;;;;5.40;2.85;;;20.70;99.90;;;;;;5030787;28;20033;-34
2023/09/30 05:50:15;;;;;;;3.85;1.92;;;20.70;99.90;;;;;;5031260;28;20030;-34
2023/09/30 05:52:42;;;;;;;5.25;2.72;;;20.70;99.90;;;;;;5031223;28;20100;-33
2023/09/30 05:55:08;;;;;;;3.55;2.00;;;20.70;99.90;;;;;;5031048;28;20025;-39
2023/09/30 05:57:35;;;;;;;4.65;2.67;;;20.70;99.90;;;;;;5030968;28;20029;-33
2023/09/30 06:00:01;;;;;;;5.07;2.30;;;20.70;99.90;;;;;;5031056;28;20022;-36
2023/09/30 06:02:26;;;;;;;4.97;2.38;;;20.70;99.90;;;;;;5031225;28;20393;-36
2023/09/30 06:04:53;;;;;;;5.22;2.47;;;20.70;99.90;;;;;;5030908;28;20109;-36
2023/09/30 06:07:20;;;;;;;4.32;2.50;;;20.70;99.90;;;;;;5030997;28;20049;-37
2023/09/30 06:09:48;;;;;;;4.40;2.05;;;20.70;99.90;;;;;;5031037;28;20029;-36
2023/09/30 06:12:14;;;;;;;5.78;2.15;;;20.70;99.90;;;;;;5031008;28;20036;-34
2023/09/30 06:14:40;;;;;;;5.45;2.40;;;20.70;99.90;;;;;;5013186;28;20124;-37
2023/09/30 06:17:07;;;;;;;4.30;2.55;;;20.70;99.90;;;;;;5030658;28;20072;-36
2023/09/30 06:19:32;;;;;;;4.90;2.55;;;20.70;99.90;;;;;;5031095;28;20067;-38
2023/09/30 06:21:58;;;;;;;4.18;2.20;;;20.70;99.90;;;;;;5030848;28;20425;-36
2023/09/30 06:24:24;;;;;;;4.68;2.35;;;20.70;99.90;;;;;;5032880;28;20026;-37
2023/09/30 06:26:50;;;;;;;4.10;2.22;;;20.70;99.90;;;;;;5016809;28;20083;-36
2023/09/30 06:29:15;;;;;;;5.10;2.40;;;20.70;99.90;;;;;;5034486;28;20104;-37
2023/09/30 06:31:41;;;;;;;4.50;2.47;;;20.70;99.90;;;;;;5034364;28;20509;-42
2023/09/30 06:34:07;;;;;;;4.25;2.05;;;20.70;99.90;;;;;;5034464;28;20052;-36
2023/09/30 06:36:32;;;;;;;4.97;2.22;;;20.70;99.90;;;;;;5034202;28;20026;-38
2023/09/30 06:38:58;;;;;;;5.88;2.50;;;20.70;99.90;;;;;;5034311;28;20025;-39
2023/09/30 06:41:25;;;;;;;3.47;2.00;;;20.70;99.90;;;;;;5034192;28;20033;-38
2023/09/30 06:43:51;;;;;;;4.20;2.20;;;20.70;99.90;;;;;;5034195;28;20043;-37
2023/09/30 06:46:17;;;;;;;4.22;2.38;;;20.70;99.90;;;;;;5033865;28;20097;-35
2023/09/30 06:48:43;;;;;;;4.60;2.05;;;20.70;99.90;;;;;;5034219;28;20038;-41
2023/09/30 06:51:15;;;;;;;4.80;2.13;;;20.70;99.90;;;;;;5034157;28;20386;-43
2023/09/30 06:53:40;;;;;;;5.45;2.08;;;20.70;99.90;;;;;;5034210;28;20026;-34
2023/09/30 06:56:06;;;;;;;4.85;2.38;;;20.70;99.90;;;;;;5033961;28;20030;-37
2023/09/30 06:58:32;;;;;;;4.43;2.50;;;20.70;99.90;;;;;;5033908;28;20022;-35
2023/09/30 07:00:57;;;;;;;3.47;2.33;;;20.70;99.90;;;;;;5033880;28;20549;-36
2023/09/30 07:03:23;;;;;;;4.57;2.30;;;20.70;99.90;;;;;;5033965;28;20034;-35
2023/09/30 07:05:49;;;;;;;3.70;2.10;;;20.70;99.90;;;;;;5033726;28;20091;-40
2023/09/30 07:08:18;;;;;;;4.32;2.08;;;20.70;99.90;;;;;;5033783;28;20018;-42
2023/09/30 07:10:52;;;;;;;4.95;2.17;;;20.70;99.90;;;;;;5034002;28;20029;-36
2023/09/30 07:13:18;;;;;;;3.95;1.90;;;20.70;99.90;;;;;;5033971;28;20478;-42
2023/09/30 07:15:43;;;;;;;4.13;2.22;;;20.70;99.90;;;;;;5033477;28;20112;-35
2023/09/30 07:18:09;;;;;;;5.15;2.10;;;20.70;99.90;;;;;;5033789;28;20380;-37
2023/09/30 07:20:35;;;;;;;4.25;2.20;;;20.70;99.90;;;;;;5034428;28;20032;-40
2023/09/30 07:23:01;;;;;;;3.08;1.80;;;20.70;99.90;;;;;;5035753;28;20028;-36
2023/09/30 07:25:27;;;;;;;3.90;2.08;;;20.70;99.90;;;;;;5035735;28;20030;-38
2023/09/30 07:27:53;;;;;;;4.25;2.13;;;20.70;99.90;;;;;;5034109;28;20029;-33
2023/09/30 07:30:18;;;;;;;4.85;1.80;;;20.70;99.90;;;;;;5033636;28;20475;-35
2023/09/30 07:32:45;;;;;;;3.88;2.17;;;20.70;99.90;;;;;;5034514;28;20104;-35
2023/09/30 07:35:12;;;;;;;4.32;2.33;;;20.70;99.90;;;;;;5034215;28;20044;-36
2023/09/30 07:37:37;;;;;;;3.58;2.10;;;20.70;99.90;;;;;;5033269;28;20084;-35
2023/09/30 07:40:04;;;;;;;3.58;2.00;;;20.70;99.90;;;;;;5033243;28;20037;-36
2023/09/30 07:42:30;;;;;;;4.05;2.05;;;20.70;99.90;;;;;;5033190;28;20917;-40
2023/09/30 07:44:56;;;;;;;3.35;1.90;;;20.70;99.90;;;;;;5015555;28;20108;-35
2023/09/30 07:47:21;;;;;;;5.38;1.90;;;20.80;99.90;;;;;;5033094;28;20025;-36
2023/09/30 07:49:47;;;;;;;3.25;1.85;;;20.80;99.90;;;;;;5033124;28;20494;-36
2023/09/30 07:52:13;;;;;;;3.58;2.00;;;20.80;99.90;;;;;;5033078;28;20099;-35
2023/09/30 07:54:38;;;;;;;5.28;2.40;;;20.80;99.90;;;;;;5032794;28;20475;-35
2023/09/30 07:57:04;;;;;;;3.95;2.08;;;20.80;99.90;;;;;;5032728;28;20029;-35
2023/09/30 07:59:30;;;;;;;3.17;1.92;;;20.80;99.90;;;;;;5032969;28;20456;-35
2023/09/30 08:01:57;;;;;;;2.78;1.73;;;20.80;99.90;;;;;;5032678;28;20036;-37
2023/09/30 08:04:22;;;;;;;4.28;1.70;;;20.80;99.90;;;;;;5032930;28;20406;-36
2023/09/30 08:06:50;;;;;;;3.95;1.92;;;20.80;99.90;;;;;;5033267;28;20017;-34
2023/09/30 08:09:18;;;;;;;5.95;1.98;;;20.80;99.90;;;;;;5032672;28;20018;-33
2023/09/30 08:11:44;;;;;;;4.47;2.00;;;20.80;99.90;;;;;;5032650;28;20483;-37
2023/09/30 08:14:10;;;;;;;7.97;2.28;;;20.80;99.90;;;;;;5032647;28;20072;-33
2023/09/30 08:16:36;;;;;;;4.50;2.22;;;20.80;99.90;;;;;;5032302;28;20106;-33
2023/09/30 08:19:03;;;;;;;3.45;1.88;;;20.80;99.90;;;;;;5032531;28;20033;-36
2023/09/30 08:21:29;;;;;;;3.35;1.95;;;20.80;99.90;;;;;;5032404;28;20099;-36
2023/09/30 08:23:54;;;;;;;2.67;1.70;;;20.80;99.90;;;;;;5032444;28;20463;-36
2023/09/30 08:26:20;;;;;;;4.13;1.90;;;20.80;99.90;;;;;;5032543;28;20033;-36
2023/09/30 08:28:46;;;;;;;3.83;1.75;;;20.80;99.90;;;;;;5032441;28;20028;-35
2023/09/30 08:31:12;;;;;;;4.15;1.77;;;20.80;99.90;;;;;;5032324;28;20052;-35
2023/09/30 08:33:39;;;;;;;3.15;1.77;;;20.80;99.90;;;;;;5032727;28;20364;-35
2023/09/30 08:36:09;;;;;;;3.90;1.80;;;20.90;99.90;;;;;;5032170;28;20482;-36
2023/09/30 08:38:39;;;;;;;3.03;1.63;;;20.80;99.90;;;;;;5032209;28;20026;-36
2023/09/30 08:41:05;;;;;;;3.80;2.20;;;20.80;99.90;;;;;;5032043;28;20044;-36
2023/09/30 08:43:31;;;;;;;4.82;2.17;;;20.90;99.90;;;;;;5032103;28;20403;-36
2023/09/30 08:46:02;;;;;;;3.00;1.70;;;20.80;99.90;;;;;;5031910;28;20398;-34
2023/09/30 08:48:30;;;;;;;3.78;1.80;;;20.80;99.90;;;;;;5031008;28;20033;-33
2023/09/30 08:50:57;;;;;;;3.28;1.63;;;20.90;99.90;;;;;;5031810;28;20017;-34
2023/09/30 08:53:24;;;;;;;15.75;3.03;;;20.90;99.90;;;;;;5031930;28;20203;-41
2023/09/30 08:55:54;;;;;;;7.97;2.65;;;20.80;99.90;;;;;;5031849;28;20117;-38
2023/09/30 08:58:21;;;;;;;15.38;3.33;;;20.60;99.90;;;;;;5032154;28;20128;-37
2023/09/30 09:00:47;;;;;;;8.18;2.65;;;20.60;99.90;;;;;;5031810;28;20025;-42
2023/09/30 09:03:13;;;;;;;9.70;2.78;;;20.60;99.90;;;;;;5031632;28;20033;-37
2023/09/30 09:05:40;;;;;;;10.93;2.50;;;20.60;99.90;;;;;;5031398;28;20451;-37
2023/09/30 09:08:06;;;;;;;11.27;2.63;;;20.70;99.90;;;;;;5031631;28;20028;-38
2023/09/30 09:10:31;;;;;;;5.78;2.42;;;20.70;99.90;;;;;;5031629;28;20100;-39
2023/09/30 09:12:58;;;;;;;6.97;2.05;;;20.70;99.90;;;;;;5031678;28;20104;-40
2023/09/30 09:15:31;;;;;;;7.18;2.40;;;20.80;99.90;;;;;;5031538;28;20059;-38
2023/09/30 09:17:56;;;;;;;6.65;2.28;;;20.80;99.90;;;;;;5031483;28;20391;-34
2023/09/30 09:20:25;;;;;;;8.70;2.55;;;20.80;99.90;;;;;;5031427;28;20096;-34
2023/09/30 09:22:53;;;;;;;7.53;2.30;;;20.90;99.90;;;;;;5031417;28;20053;-36
2023/09/30 09:25:19;;;;;;;6.05;2.45;;;20.90;99.90;;;;;;5031210;28;20426;-34
2023/09/30 09:27:45;;;;;;;5.43;2.13;;;21.00;99.90;;;;;;5031348;28;20017;-33
2023/09/30 09:30:14;;;;;;;6.57;2.20;;;21.00;99.90;;;;;;5031569;28;20091;-35
2023/09/30 09:32:54;;;;;;;3.83;2.00;;;21.00;99.90;;;;;;5031572;28;20029;-36
2023/09/30 09:35:21;;;;;;;3.90;1.63;;;21.00;99.90;;;;;;5013612;28;20057;-37
2023/09/30 09:38:01;;;;;;;5.13;2.17;;;21.00;99.90;;;;;;5031281;28;20461;-34
2023/09/30 09:40:28;;;;;;;5.38;2.17;;;21.00;99.90;;;;;;5031387;28;20045;-34
2023/09/30 09:42:55;;;;;;;4.93;2.22;;;21.00;99.90;;;;;;5031266;28;20040;-36
2023/09/30 09:45:22;;;;;;;4.72;2.13;;;21.00;99.90;;;;;;5031260;28;20499;-34
2023/09/30 09:47:48;;;;;;;3.28;1.75;;;21.10;99.90;;;;;;5031517;28;20549;-36
2023/09/30 09:50:15;;;;;;;4.63;2.20;;;21.00;99.90;;;;;;5031270;28;20022;-39
2023/09/30 09:52:42;;;;;;;4.82;1.98;;;21.00;99.90;;;;;;5031137;28;20029;-36
2023/09/30 09:55:10;;;;;;;6.60;2.13;;;21.00;99.90;;;;;;5031149;28;20029;-40
2023/09/30 09:57:37;;;;;;;4.82;2.13;;;21.00;99.90;;;;;;5030865;28;20022;-40
2023/09/30 10:00:08;;;;;;;5.13;1.75;;;21.00;99.90;;;;;;5034361;28;20032;-36
2023/09/30 10:02:36;;;;;;;3.13;1.80;;;21.00;99.90;;;;;;5035085;28;20087;-34
2023/09/30 10:05:03;;;;;;;5.53;2.20;;;21.00;99.90;;;;;;5034936;28;20028;-37
2023/09/30 10:07:35;;;;;;;4.05;2.13;;;21.00;99.90;;;;;;5034868;28;20395;-36
2023/09/30 10:10:02;;;;;;;3.75;1.92;;;21.00;99.90;;;;;;5035151;28;20017;-35
2023/09/30 10:12:35;;;;;;;5.20;1.85;;;21.00;99.90;;;;;;5035356;28;20029;-35
2023/09/30 10:15:01;;;;;;;4.35;2.00;;;21.10;99.90;;;;;;5034942;28;20025;-37
2023/09/30 10:17:59;;;;;;;5.68;2.00;;;21.00;99.90;;;;;;5034818;28;20025;-39
2023/09/30 10:20:29;;;;;;;3.85;1.75;;;21.10;99.90;;;;;;5035368;28;20026;-40
2023/09/30 10:23:16;;;;;;;6.32;1.90;;;21.00;99.90;;;;;;5035104;28;20030;-34
2023/09/30 10:25:47;;;;;;;5.85;2.03;;;21.10;99.90;;;;;;5034439;28;20049;-41
2023/09/30 10:28:46;;;;;;;4.47;2.10;;;21.00;99.90;;;;;;5034607;28;20029;-41
2023/09/30 10:31:19;;;;;;;4.88;2.05;;;21.00;99.90;;;;;;5034430;28;20049;-36
2023/09/30 10:34:00;;;;;;;5.45;2.22;;;21.00;99.90;;;;;;5034584;28;20104;-38
2023/09/30 10:36:34;;;;;;;4.30;2.13;;;21.00;99.90;;;;;;5034314;28;20026;-35
2023/09/30 10:39:02;;;;;;;4.72;1.85;;;21.00;99.90;;;;;;5034408;28;20029;-38
2023/09/30 10:41:40;;;;;;;4.78;2.10;;;21.10;99.90;;;;;;5034238;28;20516;-36
2023/09/30 10:44:30;;;;;;;5.38;2.10;;;21.10;99.90;;;;;;5034600;28;20029;-36
2023/09/30 10:46:58;;;;;;;4.03;2.00;;;21.10;99.90;;;;;;5034171;28;20063;-41
2023/09/30 10:49:23;;;;;;;3.67;1.98;;;21.10;99.90;;;;;;5034198;28;20033;-42
2023/09/30 10:51:57;;;;;;;4.03;2.20;;;21.10;99.90;;;;;;5034167;28;20494;-45
2023/09/30 10:54:24;;;;;;;4.22;1.83;;;21.10;99.90;;;;;;5034133;28;20490;-41
2023/09/30 10:56:50;;;;;;;5.43;2.10;;;21.10;99.90;;;;;;5033891;28;20029;-39
2023/09/30 10:59:23;;;;;;;3.78;1.80;;;21.10;99.90;;;;;;5033981;28;20021;-44
2023/09/30 11:01:50;;;;;;;4.13;2.03;;;21.10;99.90;;;;;;5034323;28;20087;-39
2023/09/30 11:04:15;;;;;;;3.88;1.98;;;21.10;99.90;;;;;;5033879;28;20042;-40
2023/09/30 11:06:42;;;;;;;4.22;2.10;;;21.10;99.90;;;;;;5033620;28;20037;-42
2023/09/30 11:09:13;;;;;;;4.82;2.40;;;21.10;99.90;;;;;;5033769;28;20025;-43
2023/09/30 11:11:49;;;;;;;5.65;2.38;;;21.10;99.90;;;;;;5032976;28;20025;-37
2023/09/30 11:14:31;;;;;;;5.03;2.10;;;21.10;99.90;;;;;;5034062;28;20030;-42
2023/09/30 11:16:59;;;;;;;3.17;2.00;;;21.10;99.90;;;;;;5033952;28;20106;-39
2023/09/30 11:19:26;;;;;;;4.70;2.45;;;21.10;99.90;;;;;;5033655;28;20029;-37
2023/09/30 11:21:54;;;;;;;3.78;1.90;;;21.10;99.90;;;;;;5033653;28;20036;-38
2023/09/30 11:24:21;;;;;;;4.18;2.20;;;21.10;99.90;;;;;;5033430;28;20013;-40
2023/09/30 11:26:47;;;;;;;4.35;2.17;;;21.10;99.90;;;;;;5033313;28;20028;-39
2023/09/30 11:29:16;;;;;;;4.78;2.38;;;21.10;99.90;;;;;;5033489;28;20022;-39
2023/09/30 11:31:50;;;;;;;4.03;1.95;;;21.10;99.90;;;;;;5033530;28;20049;-38
2023/09/30 11:34:18;;;;;;;5.28;2.58;;;21.10;99.90;;;;;;5033364;28;20101;-35
2023/09/30 11:36:52;;;;;;;3.78;2.40;;;21.00;99.90;;;;;;5033122;28;20037;-40
2023/09/30 11:39:28;;;;;;;5.20;2.25;;;21.10;99.90;;;;;;5033201;28;20510;-38
2023/09/30 11:41:56;;;;;;;4.60;2.38;;;21.00;99.90;;;;;;5033037;28;20150;-38
2023/09/30 11:44:22;;;;;;;6.68;2.80;;;21.10;99.90;;;;;;5033132;28;20498;-38
2023/09/30 11:46:59;;;;;;;4.80;2.67;;;21.10;99.90;;;;;;5032780;28;20570;-37
2023/09/30 11:49:38;;;;;;;3.53;2.13;;;21.10;99.90;;;;;;5033136;28;20036;-38
2023/09/30 11:52:09;;;;;;;4.07;2.67;;;21.10;99.90;;;;;;5033029;28;20050;-38
2023/09/30 11:54:43;;;;;;;4.78;2.45;;;21.10;99.90;;;;;;5032789;28;20083;-40
2023/09/30 11:57:18;;;;;;;5.30;2.47;;;21.00;99.90;;;;;;5032886;28;20490;-39
2023/09/30 11:59:47;;;;;;;3.67;2.20;;;21.00;99.90;;;;;;5032944;28;20087;-36
2023/09/30 12:02:14;;;;;;;5.13;2.80;;;21.00;99.90;;;;;;5032840;28;20030;-40
2023/09/30 12:04:41;;;;;;;4.20;2.40;;;21.00;99.90;;;;;;5014804;28;20083;-37
2023/09/30 12:07:08;;;;;;;3.83;2.35;;;21.10;99.90;;;;;;5032655;28;20017;-37
2023/09/30 12:09:36;;;;;;;5.60;2.63;;;21.00;99.90;;;;;;5032680;28;20475;-38
2023/09/30 12:12:03;;;;;;;4.25;2.50;;;21.00;99.90;;;;;;5032614;28;20427;-37
2023/09/30 12:14:32;;;;;;;15.50;6.45;;;21.00;99.90;;;;;;5032513;28;20034;-38
2023/09/30 12:16:58;;;;;;;13.00;6.13;;;20.80;99.90;;;;;;5032457;28;20022;-37
2023/09/30 12:19:24;;;;;;;12.32;5.97;;;20.60;99.90;;;;;;5032460;28;20091;-39
2023/09/30 12:21:50;;;;;;;9.93;5.97;;;20.70;99.90;;;;;;5032259;28;20018;-36
2023/09/30 12:24:17;;;;;;;13.45;5.80;;;20.70;99.90;;;;;;5032359;28;20021;-36
2023/09/30 12:26:47;;;;;;;12.10;6.22;;;20.70;99.90;;;;;;5032178;28;20387;-36
2023/09/30 12:29:17;;;;;;;11.82;6.10;;;20.80;99.90;;;;;;5032338;28;20026;-36
2023/09/30 12:31:47;;;;;;;10.27;5.97;;;20.80;99.90;;;;;;5032279;28;20025;-36
2023/09/30 12:34:13;;;;;;;11.05;6.05;;;20.80;99.90;;;;;;5032221;28;20036;-36
2023/09/30 12:36:40;;;;;;;11.77;5.90;;;20.80;99.90;;;;;;5032012;28;20030;-36
2023/09/30 12:39:10;;;;;;;16.67;6.10;;;20.90;99.90;;;;;;5032286;28;20068;-36
2023/09/30 12:41:40;;;;;;;11.38;5.45;;;20.90;99.90;;;;;;5031999;28;20021;-36
2023/09/30 12:44:06;;;;;;;10.80;5.72;;;20.90;99.90;;;;;;5032087;28;20020;-37
2023/09/30 12:46:36;;;;;;;12.32;5.85;;;20.90;99.90;;;;;;5031528;28;20030;-39
2023/09/30 12:49:06;;;;;;;12.00;5.28;;;20.90;99.90;;;;;;5014282;28;20102;-38